Tropical Cyclones
[Index]
Main Index Home Page Stock Weather Photos Extreme Storms Discussion Storm News and Storm Chasing Reports Tropical Cyclones / Hurricanes / Typhoons Weather Data and Links Wild Fires / Bushfires Weather Observation Techniques Weather Picture Catalogue Tornado Pictures and Reports Stock Video Footage and DVDs for sale
Season 2003-2004 Tropical Cyclone DARIUS Track Map
Season 2003-2004 Summaries: [BoM-AU] [JTWC-AU] [JTWC-SIO] [JTWC-SPAC] [JTWC-SH]
<<- Previous TC | JTWC 2003-2004 Season | Next TC ->>

click for intensity scale information  Lat/long Grid: Show Hide

 Date Labels: Show Hide

Joint Typhoon Warning Centre Cyclone Data

Name: DARIUS

23 Dec 2003 18:00 UTC to 04 Jan 2004 12:00 UTC

    date/time    lat    long     hPa   cat  kts
2003-12-23 18    6.5    66.9    1006         15          
2003-12-24 00    6.6    67.1    1006         15          
2003-12-24 06    6.6    67.3    1006         15          
2003-12-24 12    6.5    67.5    1006         15          
2003-12-24 18    6.4    67.8    1006         15          
2003-12-25 00    6.4    68.1    1006         15          
2003-12-25 06    6.4    68.4    1006         15          
2003-12-25 12    6.5    69.0    1006         15          
2003-12-25 18    6.9    69.7    1006         15          
2003-12-26 00    7.4    70.2    1004         20          
2003-12-26 06    7.8    70.6    1004         20          
2003-12-26 12    8.1    70.9    1004         20          
2003-12-26 18    8.3    70.9    1004         20          
2003-12-27 00    8.5    70.8    1004         20          
2003-12-27 06    8.7    70.6    1004         20          
2003-12-27 12    8.8    70.3    1004         20          
2003-12-27 18    8.9    69.8    1004         20          
2003-12-28 00    9.0    69.2    1004         20          
2003-12-28 06    9.1    68.3    1004         20          
2003-12-28 12    9.3    67.3    1004         20          
2003-12-28 18    9.5    66.3    1004         20          
2003-12-29 00    9.8    65.2    1002         25          
2003-12-29 06   10.1    64.2    1002         25          
2003-12-29 12   10.7    63.5    1000         30          
2003-12-29 18   11.5    63.0     997         35          
2003-12-30 00   12.2    62.2     994    1    40          
2003-12-30 06   12.8    61.3     994    1    40          
2003-12-30 12   13.4    60.6     991    1    45          
2003-12-30 18   14.2    60.1     991    1    45          
2003-12-31 00   14.7    59.7     984    2    55          
2003-12-31 00   14.7    59.7     984    2    55          
2003-12-31 06   15.1    59.3     984    2    55          
2003-12-31 06   15.1    59.3     984    2    55          
2003-12-31 12   15.5    59.0     984    2    55          
2003-12-31 12   15.5    59.0     984    2    55          
2003-12-31 18   16.0    58.9     984    2    55          
2003-12-31 18   16.0    58.9     984    2    55          
2004-01-01 00   16.5    58.8     984    2    55          
2004-01-01 00   16.5    58.8     984    2    55          
2004-01-01 06   17.0    58.7     984    2    55          
2004-01-01 06   17.0    58.7     984    2    55          
2004-01-01 12   17.5    58.6     984    2    55          
2004-01-01 12   17.5    58.6     984    2    55          
2004-01-01 18   18.0    58.5     984    2    55          
2004-01-01 18   18.0    58.5     984    2    55          
2004-01-02 00   18.5    58.4     984    2    55          
2004-01-02 00   18.5    58.4     984    2    55          
2004-01-02 06   19.0    58.3     984    2    55          
2004-01-02 06   19.0    58.3     984    2    55          
2004-01-02 12   19.6    58.2     984    2    55          
2004-01-02 12   19.6    58.2     984    2    55          
2004-01-02 18   20.4    58.1     984    2    55          
2004-01-02 18   20.4    58.1     984    2    55          
2004-01-03 00   21.2    58.1     984    2    55          
2004-01-03 00   21.2    58.1     984    2    55          
2004-01-03 06   22.0    58.1     987    1    50          
2004-01-03 06   22.0    58.1     987    1    50          
2004-01-03 12   23.3    58.1     991    1    45          
2004-01-03 18   24.5    58.8     991    1    45          
2004-01-04 00   26.1    58.9     991    1    45          
2004-01-04 06   27.9    59.5     994    1    40          
2004-01-04 12   30.1    61.7     997         35          
Winds are 1-min average.

Tropical cyclone tracks developed by Michael Bath using data from the Joint Typhoon Warning Centre Best Tracks and Google Maps.


[Australian Severe Weather index] [Copyright Notice] [Email Contacts] [Search This Site] [Privacy Policy]
Document: tropical_cyclone_darius.htm Updated: 28 June 2017